sensor_id;sensor_type;location;lat;lon;timestamp;pressure;altitude;pressure_sealevel;temperature;humidity
36380;BME280;22411;53.016;18.632;2023-05-23T00:01:32;100669.78;;;14.21;100.00
36380;BME280;22411;53.016;18.632;2023-05-23T00:04:07;100666.06;;;14.23;100.00
36380;BME280;22411;53.016;18.632;2023-05-23T00:06:33;100665.53;;;14.20;100.00
36380;BME280;22411;53.016;18.632;2023-05-23T00:09:01;100668.63;;;14.13;100.00
36380;BME280;22411;53.016;18.632;2023-05-23T00:11:26;100667.91;;;14.11;100.00
36380;BME280;22411;53.016;18.632;2023-05-23T00:13:54;100671.34;;;14.12;100.00
36380;BME280;22411;53.016;18.632;2023-05-23T00:16:20;100667.78;;;14.13;100.00
36380;BME280;22411;53.016;18.632;2023-05-23T00:18:47;100670.50;;;14.11;100.00
36380;BME280;22411;53.016;18.632;2023-05-23T00:21:14;100670.88;;;14.07;100.00
36380;BME280;22411;53.016;18.632;2023-05-23T00:23:41;100674.34;;;13.96;100.00
36380;BME280;22411;53.016;18.632;2023-05-23T00:26:08;100669.16;;;13.85;100.00
36380;BME280;22411;53.016;18.632;2023-05-23T00:28:34;100664.56;;;13.77;100.00
36380;BME280;22411;53.016;18.632;2023-05-23T00:30:59;100670.75;;;13.76;100.00
36380;BME280;22411;53.016;18.632;2023-05-23T00:33:25;100661.97;;;13.77;100.00
36380;BME280;22411;53.016;18.632;2023-05-23T00:35:51;100667.06;;;13.79;100.00
36380;BME280;22411;53.016;18.632;2023-05-23T00:38:17;100659.22;;;13.79;100.00
36380;BME280;22411;53.016;18.632;2023-05-23T00:40:43;100660.78;;;13.81;100.00
36380;BME280;22411;53.016;18.632;2023-05-23T00:43:09;100665.28;;;13.79;100.00
36380;BME280;22411;53.016;18.632;2023-05-23T00:45:35;100663.75;;;13.77;100.00
36380;BME280;22411;53.016;18.632;2023-05-23T00:48:01;100665.88;;;13.72;100.00
36380;BME280;22411;53.016;18.632;2023-05-23T00:50:28;100667.91;;;13.68;100.00
36380;BME280;22411;53.016;18.632;2023-05-23T00:52:55;100662.44;;;13.60;100.00
36380;BME280;22411;53.016;18.632;2023-05-23T00:55:23;100663.75;;;13.54;100.00
36380;BME280;22411;53.016;18.632;2023-05-23T00:57:51;100660.47;;;13.52;100.00
36380;BME280;22411;53.016;18.632;2023-05-23T01:00:20;100665.06;;;13.60;100.00
36380;BME280;22411;53.016;18.632;2023-05-23T01:02:48;100662.56;;;13.58;100.00
36380;BME280;22411;53.016;18.632;2023-05-23T01:05:17;100668.38;;;13.62;100.00
36380;BME280;22411;53.016;18.632;2023-05-23T01:07:47;100664.50;;;13.56;100.00
36380;BME280;22411;53.016;18.632;2023-05-23T01:10:14;100661.53;;;13.50;100.00
36380;BME280;22411;53.016;18.632;2023-05-23T01:15:39;100659.66;;;13.41;100.00
36380;BME280;22411;53.016;18.632;2023-05-23T01:18:11;100655.50;;;13.38;100.00
36380;BME280;22411;53.016;18.632;2023-05-23T01:20:51;100655.50;;;13.38;100.00
36380;BME280;22411;53.016;18.632;2023-05-23T01:28:42;100656.56;;;13.36;100.00
36380;BME280;22411;53.016;18.632;2023-05-23T01:31:10;100655.84;;;13.33;100.00
36380;BME280;22411;53.016;18.632;2023-05-23T01:33:37;100652.53;;;13.31;100.00
36380;BME280;22411;53.016;18.632;2023-05-23T01:36:04;100644.97;;;13.28;100.00
36380;BME280;22411;53.016;18.632;2023-05-23T01:38:30;100644.38;;;13.25;100.00
36380;BME280;22411;53.016;18.632;2023-05-23T01:40:56;100656.56;;;13.24;100.00
36380;BME280;22411;53.016;18.632;2023-05-23T01:43:23;100644.72;;;13.20;100.00
36380;BME280;22411;53.016;18.632;2023-05-23T01:45:51;100646.63;;;13.18;100.00
36380;BME280;22411;53.016;18.632;2023-05-23T01:48:19;100638.81;;;13.18;100.00
36380;BME280;22411;53.016;18.632;2023-05-23T01:50:45;100643.97;;;13.07;100.00
36380;BME280;22411;53.016;18.632;2023-05-23T01:53:21;100643.88;;;12.97;100.00
36380;BME280;22411;53.016;18.632;2023-05-23T01:55:48;100631.91;;;12.95;100.00
36380;BME280;22411;53.016;18.632;2023-05-23T01:58:14;100644.69;;;12.98;100.00
36380;BME280;22411;53.016;18.632;2023-05-23T02:00:39;100641.28;;;12.97;100.00
36380;BME280;22411;53.016;18.632;2023-05-23T02:03:05;100640.91;;;13.02;100.00
36380;BME280;22411;53.016;18.632;2023-05-23T02:05:31;100636.78;;;12.99;100.00
36380;BME280;22411;53.016;18.632;2023-05-23T02:07:57;100630.00;;;12.97;100.00
36380;BME280;22411;53.016;18.632;2023-05-23T02:10:22;100635.34;;;12.95;100.00
36380;BME280;22411;53.016;18.632;2023-05-23T02:12:48;100625.28;;;12.91;100.00
36380;BME280;22411;53.016;18.632;2023-05-23T02:15:14;100621.03;;;12.90;100.00
36380;BME280;22411;53.016;18.632;2023-05-23T02:17:42;100619.38;;;12.89;100.00
36380;BME280;22411;53.016;18.632;2023-05-23T02:20:07;100626.00;;;12.81;100.00
36380;BME280;22411;53.016;18.632;2023-05-23T02:22:35;100619.59;;;12.74;100.00
36380;BME280;22411;53.016;18.632;2023-05-23T02:25:00;100619.94;;;12.70;100.00
36380;BME280;22411;53.016;18.632;2023-05-23T02:27:26;100620.06;;;12.68;100.00
36380;BME280;22411;53.016;18.632;2023-05-23T02:29:52;100615.56;;;12.70;100.00
36380;BME280;22411;53.016;18.632;2023-05-23T02:32:18;100617.47;;;12.68;100.00
36380;BME280;22411;53.016;18.632;2023-05-23T02:34:44;100618.28;;;12.69;100.00
36380;BME280;22411;53.016;18.632;2023-05-23T02:37:14;100618.53;;;12.66;100.00
36380;BME280;22411;53.016;18.632;2023-05-23T02:39:41;100617.19;;;12.60;100.00
36380;BME280;22411;53.016;18.632;2023-05-23T02:42:07;100613.19;;;12.56;100.00
36380;BME280;22411;53.016;18.632;2023-05-23T02:44:33;100614.34;;;12.52;100.00
36380;BME280;22411;53.016;18.632;2023-05-23T02:46:59;100612.38;;;12.55;100.00
36380;BME280;22411;53.016;18.632;2023-05-23T02:49:24;100612.47;;;12.54;100.00
36380;BME280;22411;53.016;18.632;2023-05-23T02:51:50;100608.66;;;12.47;100.00
36380;BME280;22411;53.016;18.632;2023-05-23T02:54:16;100600.88;;;12.47;100.00
36380;BME280;22411;53.016;18.632;2023-05-23T02:56:44;100607.22;;;12.43;100.00
36380;BME280;22411;53.016;18.632;2023-05-23T02:59:09;100603.94;;;12.41;100.00
36380;BME280;22411;53.016;18.632;2023-05-23T03:01:37;100604.50;;;12.44;100.00
36380;BME280;22411;53.016;18.632;2023-05-23T03:04:02;100595.66;;;12.47;100.00
36380;BME280;22411;53.016;18.632;2023-05-23T03:06:28;100600.75;;;12.48;100.00
36380;BME280;22411;53.016;18.632;2023-05-23T03:08:56;100599.44;;;12.43;100.00
36380;BME280;22411;53.016;18.632;2023-05-23T03:11:22;100593.28;;;12.44;100.00
36380;BME280;22411;53.016;18.632;2023-05-23T03:13:47;100588.91;;;12.44;100.00
36380;BME280;22411;53.016;18.632;2023-05-23T03:16:13;100601.91;;;12.44;100.00
36380;BME280;22411;53.016;18.632;2023-05-23T03:18:39;100594.97;;;12.45;100.00
36380;BME280;22411;53.016;18.632;2023-05-23T03:21:06;100599.09;;;12.47;100.00
36380;BME280;22411;53.016;18.632;2023-05-23T03:23:32;100600.66;;;12.50;100.00
36380;BME280;22411;53.016;18.632;2023-05-23T03:25:58;100595.94;;;12.55;100.00
36380;BME280;22411;53.016;18.632;2023-05-23T03:28:24;100599.13;;;12.59;100.00
36380;BME280;22411;53.016;18.632;2023-05-23T03:30:50;100597.47;;;12.57;100.00
36380;BME280;22411;53.016;18.632;2023-05-23T03:33:15;100599.94;;;12.59;100.00
36380;BME280;22411;53.016;18.632;2023-05-23T03:35:41;100602.31;;;12.62;100.00
36380;BME280;22411;53.016;18.632;2023-05-23T03:38:06;100597.00;;;12.64;100.00
36380;BME280;22411;53.016;18.632;2023-05-23T03:40:32;100599.59;;;12.64;100.00
36380;BME280;22411;53.016;18.632;2023-05-23T03:43:03;100602.94;;;12.66;100.00
36380;BME280;22411;53.016;18.632;2023-05-23T03:45:30;100607.06;;;12.68;100.00
36380;BME280;22411;53.016;18.632;2023-05-23T03:47:55;100601.25;;;12.76;100.00
36380;BME280;22411;53.016;18.632;2023-05-23T03:50:21;100595.00;;;12.78;100.00
36380;BME280;22411;53.016;18.632;2023-05-23T03:52:47;100590.41;;;12.82;100.00
36380;BME280;22411;53.016;18.632;2023-05-23T03:55:12;100583.31;;;12.84;100.00
36380;BME280;22411;53.016;18.632;2023-05-23T03:57:38;100587.34;;;12.88;100.00
36380;BME280;22411;53.016;18.632;2023-05-23T04:00:04;100580.97;;;12.92;100.00
36380;BME280;22411;53.016;18.632;2023-05-23T04:02:37;100575.97;;;13.00;100.00
36380;BME280;22411;53.016;18.632;2023-05-23T04:05:05;100581.66;;;13.05;100.00
36380;BME280;22411;53.016;18.632;2023-05-23T04:07:32;100574.31;;;13.11;100.00
36380;BME280;22411;53.016;18.632;2023-05-23T04:10:02;100584.59;;;13.12;100.00
36380;BME280;22411;53.016;18.632;2023-05-23T04:12:27;100577.28;;;13.17;100.00
36380;BME280;22411;53.016;18.632;2023-05-23T04:14:55;100569.88;;;13.24;100.00
36380;BME280;22411;53.016;18.632;2023-05-23T04:17:22;100569.38;;;13.30;100.00
36380;BME280;22411;53.016;18.632;2023-05-23T04:19:49;100567.13;;;13.37;100.00
36380;BME280;22411;53.016;18.632;2023-05-23T04:22:15;100566.75;;;13.41;100.00
36380;BME280;22411;53.016;18.632;2023-05-23T04:24:41;100563.53;;;13.49;100.00
36380;BME280;22411;53.016;18.632;2023-05-23T04:27:06;100572.06;;;13.51;100.00
36380;BME280;22411;53.016;18.632;2023-05-23T04:29:35;100574.53;;;13.52;100.00
36380;BME280;22411;53.016;18.632;2023-05-23T04:32:02;100580.34;;;13.56;100.00
36380;BME280;22411;53.016;18.632;2023-05-23T04:34:28;100575.31;;;13.64;100.00
36380;BME280;22411;53.016;18.632;2023-05-23T04:36:54;100577.56;;;13.69;100.00
36380;BME280;22411;53.016;18.632;2023-05-23T04:39:20;100579.13;;;13.71;100.00
36380;BME280;22411;53.016;18.632;2023-05-23T04:41:46;100576.00;;;13.77;100.00
36380;BME280;22411;53.016;18.632;2023-05-23T04:44:12;100578.25;;;13.82;100.00
36380;BME280;22411;53.016;18.632;2023-05-23T04:46:39;100576.16;;;13.97;100.00
36380;BME280;22411;53.016;18.632;2023-05-23T04:49:10;100570.00;;;13.98;100.00
36380;BME280;22411;53.016;18.632;2023-05-23T04:51:35;100578.28;;;14.03;100.00
36380;BME280;22411;53.016;18.632;2023-05-23T04:54:02;100573.75;;;14.05;100.00
36380;BME280;22411;53.016;18.632;2023-05-23T04:56:28;100572.22;;;14.02;100.00
36380;BME280;22411;53.016;18.632;2023-05-23T04:58:54;100573.63;;;14.06;100.00
36380;BME280;22411;53.016;18.632;2023-05-23T05:01:20;100579.28;;;14.11;100.00
36380;BME280;22411;53.016;18.632;2023-05-23T05:03:49;100566.72;;;14.17;100.00
36380;BME280;22411;53.016;18.632;2023-05-23T05:06:15;100579.56;;;14.29;100.00
36380;BME280;22411;53.016;18.632;2023-05-23T05:08:42;100575.94;;;14.42;100.00
36380;BME280;22411;53.016;18.632;2023-05-23T05:11:08;100574.94;;;14.54;100.00
36380;BME280;22411;53.016;18.632;2023-05-23T05:13:35;100576.09;;;14.61;100.00
36380;BME280;22411;53.016;18.632;2023-05-23T05:16:01;100571.03;;;14.69;100.00
36380;BME280;22411;53.016;18.632;2023-05-23T05:18:27;100569.31;;;14.79;100.00
36380;BME280;22411;53.016;18.632;2023-05-23T05:20:53;100572.22;;;14.86;100.00
36380;BME280;22411;53.016;18.632;2023-05-23T05:23:19;100572.78;;;14.89;100.00
36380;BME280;22411;53.016;18.632;2023-05-23T05:25:45;100574.06;;;14.95;100.00
36380;BME280;22411;53.016;18.632;2023-05-23T05:28:11;100569.56;;;15.07;100.00
36380;BME280;22411;53.016;18.632;2023-05-23T05:30:36;100571.25;;;15.17;100.00
36380;BME280;22411;53.016;18.632;2023-05-23T05:33:03;100567.84;;;15.27;100.00
36380;BME280;22411;53.016;18.632;2023-05-23T05:35:33;100562.63;;;15.36;100.00
36380;BME280;22411;53.016;18.632;2023-05-23T05:38:00;100564.06;;;15.50;100.00
36380;BME280;22411;53.016;18.632;2023-05-23T05:40:26;100566.53;;;15.61;100.00
36380;BME280;22411;53.016;18.632;2023-05-23T05:42:52;100562.72;;;15.75;100.00
36380;BME280;22411;53.016;18.632;2023-05-23T05:45:18;100565.91;;;15.88;100.00
36380;BME280;22411;53.016;18.632;2023-05-23T05:47:45;100565.75;;;16.00;100.00
36380;BME280;22411;53.016;18.632;2023-05-23T05:50:11;100565.03;;;16.17;100.00
36380;BME280;22411;53.016;18.632;2023-05-23T05:52:37;100559.66;;;16.28;100.00
36380;BME280;22411;53.016;18.632;2023-05-23T05:55:08;100565.69;;;16.38;100.00
36380;BME280;22411;53.016;18.632;2023-05-23T05:57:36;100555.78;;;16.52;100.00
36380;BME280;22411;53.016;18.632;2023-05-23T06:00:11;100558.06;;;16.64;100.00
36380;BME280;22411;53.016;18.632;2023-05-23T06:02:40;100553.50;;;16.76;100.00
36380;BME280;22411;53.016;18.632;2023-05-23T06:05:13;100546.00;;;16.91;100.00
36380;BME280;22411;53.016;18.632;2023-05-23T06:07:41;100541.28;;;17.04;100.00
36380;BME280;22411;53.016;18.632;2023-05-23T06:10:08;100549.91;;;17.14;100.00
36380;BME280;22411;53.016;18.632;2023-05-23T06:12:34;100541.09;;;17.33;100.00
36380;BME280;22411;53.016;18.632;2023-05-23T06:15:00;100544.03;;;17.48;100.00
36380;BME280;22411;53.016;18.632;2023-05-23T06:17:26;100542.56;;;17.63;100.00
36380;BME280;22411;53.016;18.632;2023-05-23T06:19:52;100536.81;;;17.77;100.00
36380;BME280;22411;53.016;18.632;2023-05-23T06:22:18;100538.88;;;17.92;100.00
36380;BME280;22411;53.016;18.632;2023-05-23T06:24:44;100534.09;;;18.05;100.00
36380;BME280;22411;53.016;18.632;2023-05-23T06:27:11;100537.19;;;18.26;100.00
36380;BME280;22411;53.016;18.632;2023-05-23T06:29:37;100534.38;;;18.46;100.00
36380;BME280;22411;53.016;18.632;2023-05-23T06:32:04;100531.97;;;18.61;100.00
36380;BME280;22411;53.016;18.632;2023-05-23T06:34:30;100528.63;;;18.76;100.00
36380;BME280;22411;53.016;18.632;2023-05-23T06:36:56;100527.00;;;18.75;100.00
36380;BME280;22411;53.016;18.632;2023-05-23T06:39:21;100520.34;;;18.89;100.00
36380;BME280;22411;53.016;18.632;2023-05-23T06:41:47;100522.69;;;19.08;100.00
36380;BME280;22411;53.016;18.632;2023-05-23T06:44:13;100522.59;;;19.26;100.00
36380;BME280;22411;53.016;18.632;2023-05-23T06:46:41;100519.16;;;19.42;100.00
36380;BME280;22411;53.016;18.632;2023-05-23T06:49:07;100525.91;;;19.45;100.00
36380;BME280;22411;53.016;18.632;2023-05-23T06:51:33;100518.84;;;19.53;100.00
36380;BME280;22411;53.016;18.632;2023-05-23T06:53:58;100512.81;;;19.61;100.00
36380;BME280;22411;53.016;18.632;2023-05-23T06:56:24;100518.91;;;19.62;100.00
36380;BME280;22411;53.016;18.632;2023-05-23T06:58:50;100516.94;;;19.64;100.00
36380;BME280;22411;53.016;18.632;2023-05-23T07:01:16;100512.50;;;19.72;100.00
36380;BME280;22411;53.016;18.632;2023-05-23T07:03:41;100513.81;;;19.76;100.00
36380;BME280;22411;53.016;18.632;2023-05-23T07:06:10;100519.72;;;19.87;100.00
36380;BME280;22411;53.016;18.632;2023-05-23T07:08:36;100507.41;;;19.95;100.00
36380;BME280;22411;53.016;18.632;2023-05-23T07:11:02;100515.44;;;20.02;100.00
36380;BME280;22411;53.016;18.632;2023-05-23T07:13:28;100512.97;;;20.08;100.00
36380;BME280;22411;53.016;18.632;2023-05-23T07:15:54;100511.69;;;20.04;100.00
36380;BME280;22411;53.016;18.632;2023-05-23T07:18:20;100513.31;;;20.05;100.00
36380;BME280;22411;53.016;18.632;2023-05-23T07:20:46;100510.00;;;20.20;100.00
36380;BME280;22411;53.016;18.632;2023-05-23T07:23:12;100513.44;;;20.28;100.00
36380;BME280;22411;53.016;18.632;2023-05-23T07:25:38;100510.97;;;20.51;100.00
36380;BME280;22411;53.016;18.632;2023-05-23T07:28:04;100497.06;;;20.66;100.00
36380;BME280;22411;53.016;18.632;2023-05-23T07:30:30;100501.66;;;20.72;100.00
36380;BME280;22411;53.016;18.632;2023-05-23T07:32:56;100492.84;;;20.87;100.00
36380;BME280;22411;53.016;18.632;2023-05-23T07:35:22;100498.66;;;20.83;92.13
36380;BME280;22411;53.016;18.632;2023-05-23T07:37:51;100495.97;;;20.91;99.77
36380;BME280;22411;53.016;18.632;2023-05-23T07:40:18;100487.56;;;20.96;97.38
36380;BME280;22411;53.016;18.632;2023-05-23T07:42:44;100489.69;;;21.00;95.71
36380;BME280;22411;53.016;18.632;2023-05-23T07:45:10;100488.06;;;21.22;95.70
36380;BME280;22411;53.016;18.632;2023-05-23T07:47:36;100488.63;;;21.40;88.57
36380;BME280;22411;53.016;18.632;2023-05-23T07:50:02;100482.84;;;21.68;92.32
36380;BME280;22411;53.016;18.632;2023-05-23T07:52:31;100475.41;;;21.86;84.66
36380;BME280;22411;53.016;18.632;2023-05-23T07:54:57;100477.34;;;22.07;83.92
36380;BME280;22411;53.016;18.632;2023-05-23T07:57:23;100478.69;;;22.03;79.39
36380;BME280;22411;53.016;18.632;2023-05-23T07:59:49;100481.19;;;22.05;82.17
36380;BME280;22411;53.016;18.632;2023-05-23T08:02:16;100468.00;;;22.05;82.55
36380;BME280;22411;53.016;18.632;2023-05-23T08:04:42;100475.53;;;22.08;82.75
36380;BME280;22411;53.016;18.632;2023-05-23T08:07:07;100479.84;;;22.24;83.78
36380;BME280;22411;53.016;18.632;2023-05-23T08:09:34;100472.13;;;22.52;85.06
36380;BME280;22411;53.016;18.632;2023-05-23T08:12:00;100475.75;;;22.51;76.18
36380;BME280;22411;53.016;18.632;2023-05-23T08:14:26;100476.56;;;22.51;77.75
36380;BME280;22411;53.016;18.632;2023-05-23T08:16:52;100473.91;;;22.66;67.06
36380;BME280;22411;53.016;18.632;2023-05-23T08:19:18;100472.47;;;22.63;76.19
36380;BME280;22411;53.016;18.632;2023-05-23T08:21:44;100481.31;;;22.56;66.43
36380;BME280;22411;53.016;18.632;2023-05-23T08:24:10;100468.63;;;22.66;71.01
36380;BME280;22411;53.016;18.632;2023-05-23T08:26:38;100464.34;;;22.65;70.35
36380;BME280;22411;53.016;18.632;2023-05-23T08:29:03;100467.19;;;22.34;63.73
36380;BME280;22411;53.016;18.632;2023-05-23T08:31:30;100472.88;;;22.31;67.70
36380;BME280;22411;53.016;18.632;2023-05-23T08:33:56;100470.38;;;22.59;67.40
36380;BME280;22411;53.016;18.632;2023-05-23T08:36:22;100466.38;;;22.63;66.57
36380;BME280;22411;53.016;18.632;2023-05-23T08:38:49;100467.06;;;22.86;65.07
36380;BME280;22411;53.016;18.632;2023-05-23T08:41:22;100466.66;;;23.04;59.97
36380;BME280;22411;53.016;18.632;2023-05-23T08:43:49;100465.84;;;23.04;62.31
36380;BME280;22411;53.016;18.632;2023-05-23T08:46:15;100468.47;;;22.67;60.65
36380;BME280;22411;53.016;18.632;2023-05-23T08:48:42;100477.75;;;22.78;65.16
36380;BME280;22411;53.016;18.632;2023-05-23T08:51:12;100466.59;;;22.98;67.16
36380;BME280;22411;53.016;18.632;2023-05-23T08:53:40;100460.09;;;23.15;66.89
36380;BME280;22411;53.016;18.632;2023-05-23T08:56:08;100462.53;;;23.38;66.52
36380;BME280;22411;53.016;18.632;2023-05-23T08:58:34;100457.84;;;23.61;61.75
36380;BME280;22411;53.016;18.632;2023-05-23T09:01:00;100468.16;;;23.71;62.24
36380;BME280;22411;53.016;18.632;2023-05-23T09:03:27;100464.50;;;24.00;60.11
36380;BME280;22411;53.016;18.632;2023-05-23T09:05:53;100464.59;;;24.20;57.37
36380;BME280;22411;53.016;18.632;2023-05-23T09:08:19;100466.81;;;24.10;55.49
36380;BME280;22411;53.016;18.632;2023-05-23T09:10:47;100462.56;;;24.15;53.92
36380;BME280;22411;53.016;18.632;2023-05-23T09:13:15;100455.91;;;24.26;55.98
36380;BME280;22411;53.016;18.632;2023-05-23T09:16:14;100462.41;;;24.58;53.77
36380;BME280;22411;53.016;18.632;2023-05-23T09:18:43;100455.28;;;24.31;49.56
36380;BME280;22411;53.016;18.632;2023-05-23T09:21:10;100451.13;;;24.43;53.20
36380;BME280;22411;53.016;18.632;2023-05-23T09:23:38;100455.25;;;24.17;47.38
36380;BME280;22411;53.016;18.632;2023-05-23T09:26:10;100457.91;;;23.89;49.61
36380;BME280;22411;53.016;18.632;2023-05-23T09:28:39;100458.81;;;23.75;51.23
36380;BME280;22411;53.016;18.632;2023-05-23T09:31:06;100447.41;;;24.03;50.15
36380;BME280;22411;53.016;18.632;2023-05-23T09:33:45;100447.38;;;23.96;51.55
36380;BME280;22411;53.016;18.632;2023-05-23T09:36:12;100453.53;;;23.75;55.60
36380;BME280;22411;53.016;18.632;2023-05-23T09:38:39;100450.72;;;23.62;55.64
36380;BME280;22411;53.016;18.632;2023-05-23T09:41:05;100450.50;;;23.78;55.80
36380;BME280;22411;53.016;18.632;2023-05-23T09:43:32;100450.31;;;23.80;52.10
36380;BME280;22411;53.016;18.632;2023-05-23T09:46:11;100452.47;;;23.97;56.00
36380;BME280;22411;53.016;18.632;2023-05-23T09:48:37;100451.28;;;24.00;53.58
36380;BME280;22411;53.016;18.632;2023-05-23T09:51:04;100452.06;;;23.94;52.31
36380;BME280;22411;53.016;18.632;2023-05-23T09:53:31;100453.97;;;23.79;53.25
36380;BME280;22411;53.016;18.632;2023-05-23T09:55:58;100447.56;;;23.94;52.38
36380;BME280;22411;53.016;18.632;2023-05-23T09:58:26;100450.09;;;24.09;54.26
36380;BME280;22411;53.016;18.632;2023-05-23T10:00:55;100455.44;;;24.16;52.21
36380;BME280;22411;53.016;18.632;2023-05-23T10:03:26;100445.94;;;24.28;50.93
36380;BME280;22411;53.016;18.632;2023-05-23T10:05:56;100446.69;;;24.15;50.82
36380;BME280;22411;53.016;18.632;2023-05-23T10:08:42;100445.06;;;23.86;52.99
36380;BME280;22411;53.016;18.632;2023-05-23T10:14:05;100445.91;;;23.93;53.80
36380;BME280;22411;53.016;18.632;2023-05-23T10:19:47;100441.66;;;24.27;51.99
36380;BME280;22411;53.016;18.632;2023-05-23T10:22:15;100443.59;;;24.12;54.69
36380;BME280;22411;53.016;18.632;2023-05-23T10:24:43;100442.56;;;23.78;57.33
36380;BME280;22411;53.016;18.632;2023-05-23T10:27:10;100442.19;;;23.60;56.26
36380;BME280;22411;53.016;18.632;2023-05-23T10:29:36;100444.50;;;23.63;57.08
36380;BME280;22411;53.016;18.632;2023-05-23T10:32:03;100443.63;;;23.84;56.01
36380;BME280;22411;53.016;18.632;2023-05-23T10:40:40;100437.75;;;26.70;45.89
36380;BME280;22411;53.016;18.632;2023-05-23T10:43:15;100436.97;;;27.57;43.06
36380;BME280;22411;53.016;18.632;2023-05-23T10:45:43;100438.94;;;27.44;43.96
36380;BME280;22411;53.016;18.632;2023-05-23T10:51:00;100437.06;;;26.81;44.66
36380;BME280;22411;53.016;18.632;2023-05-23T10:53:28;100428.56;;;27.60;43.15
36380;BME280;22411;53.016;18.632;2023-05-23T10:55:55;100435.91;;;27.90;39.24
36380;BME280;22411;53.016;18.632;2023-05-23T10:58:20;100433.59;;;27.75;39.19
36380;BME280;22411;53.016;18.632;2023-05-23T11:00:55;100429.72;;;27.15;43.08
36380;BME280;22411;53.016;18.632;2023-05-23T11:03:50;100428.53;;;27.04;41.41
36380;BME280;22411;53.016;18.632;2023-05-23T11:06:39;100429.19;;;27.31;41.03
36380;BME280;22411;53.016;18.632;2023-05-23T11:09:16;100424.47;;;27.83;37.08
36380;BME280;22411;53.016;18.632;2023-05-23T11:19:54;100415.63;;;27.39;39.33
36380;BME280;22411;53.016;18.632;2023-05-23T11:22:26;100418.16;;;27.52;37.28
36380;BME280;22411;53.016;18.632;2023-05-23T11:24:56;100416.38;;;28.14;38.24
36380;BME280;22411;53.016;18.632;2023-05-23T11:27:29;100417.59;;;28.37;37.72
36380;BME280;22411;53.016;18.632;2023-05-23T11:30:15;100417.47;;;28.25;36.13
36380;BME280;22411;53.016;18.632;2023-05-23T11:32:49;100415.41;;;27.91;36.13
36380;BME280;22411;53.016;18.632;2023-05-23T11:35:15;100406.06;;;27.81;35.89
36380;BME280;22411;53.016;18.632;2023-05-23T11:37:42;100407.44;;;26.77;38.15
36380;BME280;22411;53.016;18.632;2023-05-23T11:40:25;100406.31;;;25.82;40.57
36380;BME280;22411;53.016;18.632;2023-05-23T11:42:52;100404.44;;;26.16;39.25
36380;BME280;22411;53.016;18.632;2023-05-23T11:45:19;100414.00;;;27.06;37.95
36380;BME280;22411;53.016;18.632;2023-05-23T11:47:45;100405.97;;;27.45;38.54
36380;BME280;22411;53.016;18.632;2023-05-23T11:50:11;100397.72;;;27.53;36.51
36380;BME280;22411;53.016;18.632;2023-05-23T11:52:36;100395.88;;;27.28;36.72
36380;BME280;22411;53.016;18.632;2023-05-23T11:55:02;100397.78;;;27.21;39.03
36380;BME280;22411;53.016;18.632;2023-05-23T11:57:29;100393.31;;;27.15;36.93
36380;BME280;22411;53.016;18.632;2023-05-23T11:59:55;100393.16;;;26.72;36.29
36380;BME280;22411;53.016;18.632;2023-05-23T12:02:21;100390.38;;;26.60;41.91
36380;BME280;22411;53.016;18.632;2023-05-23T12:04:49;100384.72;;;26.37;43.11
36380;BME280;22411;53.016;18.632;2023-05-23T12:07:18;100384.59;;;26.18;43.63
36380;BME280;22411;53.016;18.632;2023-05-23T12:09:44;100383.38;;;26.14;42.35
36380;BME280;22411;53.016;18.632;2023-05-23T12:12:12;100383.84;;;25.71;46.77
36380;BME280;22411;53.016;18.632;2023-05-23T12:14:37;100374.06;;;25.52;46.78
36380;BME280;22411;53.016;18.632;2023-05-23T12:17:12;100376.13;;;25.23;42.07
36380;BME280;22411;53.016;18.632;2023-05-23T12:19:38;100376.28;;;24.95;39.16
36380;BME280;22411;53.016;18.632;2023-05-23T12:22:05;100379.13;;;24.81;41.45
36380;BME280;22411;53.016;18.632;2023-05-23T12:24:34;100373.97;;;24.66;41.53
36380;BME280;22411;53.016;18.632;2023-05-23T12:27:01;100371.75;;;24.76;39.82
36380;BME280;22411;53.016;18.632;2023-05-23T12:29:31;100365.88;;;24.81;43.18
36380;BME280;22411;53.016;18.632;2023-05-23T12:31:59;100369.31;;;24.74;43.59
36380;BME280;22411;53.016;18.632;2023-05-23T12:34:25;100364.34;;;24.51;44.03
36380;BME280;22411;53.016;18.632;2023-05-23T12:36:55;100363.88;;;24.35;45.01
36380;BME280;22411;53.016;18.632;2023-05-23T12:39:26;100363.25;;;24.26;44.18
36380;BME280;22411;53.016;18.632;2023-05-23T12:41:53;100364.00;;;24.20;43.79
36380;BME280;22411;53.016;18.632;2023-05-23T12:44:21;100365.66;;;24.21;43.12
36380;BME280;22411;53.016;18.632;2023-05-23T12:46:46;100367.31;;;24.29;46.43
36380;BME280;22411;53.016;18.632;2023-05-23T12:49:12;100370.06;;;24.42;45.54
36380;BME280;22411;53.016;18.632;2023-05-23T12:51:39;100362.91;;;24.42;44.50
36380;BME280;22411;53.016;18.632;2023-05-23T12:54:07;100357.19;;;24.39;43.33
36380;BME280;22411;53.016;18.632;2023-05-23T12:56:33;100366.56;;;24.41;43.05
36380;BME280;22411;53.016;18.632;2023-05-23T12:58:59;100374.06;;;24.31;42.83
36380;BME280;22411;53.016;18.632;2023-05-23T13:01:26;100364.88;;;24.27;41.68
36380;BME280;22411;53.016;18.632;2023-05-23T13:03:52;100362.56;;;24.17;44.73
36380;BME280;22411;53.016;18.632;2023-05-23T13:06:18;100359.13;;;24.23;45.83